Hacienda Las Garzas, Puerto Rico
Current Conditions -  °F | °C
As of 8:56 PM on Sunday 23 Nov 2014 (Local Time) from TJSJ Reporting Station
Overcast Overcast  
Wind Chill: 81°   Ceiling: 2600
Heat Index: 85°   Visibility: 10mi
Dew Point: 72°   Wind: 15mph
Humidity: 74%   Direction: 70°ENE
Pressure: 30.02"   Gusts: NA
Location:  18.3817°N, 65.8302°W
Report Text: TJSJ 240056Z 07013KT 10SM BKN026 OVC060 27/22 A3002 RMK AO2 RAE02 SLP163 T02720222 $
Loading
Personal Weather Stations






























Interactive Weather Map New forecast layout! Learn more

10-Day Weather Forecast

Advertisements
Track Severe Weather on mobile